sensor_id;sensor_type;location;lat;lon;timestamp;temperature;humidity
20081;DHT22;10200;49.232;9.222;2022-07-29T00:02:00;24.40;62.40
20081;DHT22;10200;49.232;9.222;2022-07-29T00:04:26;24.30;62.50
20081;DHT22;10200;49.232;9.222;2022-07-29T00:06:52;24.20;62.70
20081;DHT22;10200;49.232;9.222;2022-07-29T00:09:17;24.10;63.20
20081;DHT22;10200;49.232;9.222;2022-07-29T00:11:43;24.10;63.50
20081;DHT22;10200;49.232;9.222;2022-07-29T00:14:09;24.00;63.90
20081;DHT22;10200;49.232;9.222;2022-07-29T00:16:35;23.90;63.70
20081;DHT22;10200;49.232;9.222;2022-07-29T00:19:00;23.80;63.90
20081;DHT22;10200;49.232;9.222;2022-07-29T00:21:26;23.70;64.20
20081;DHT22;10200;49.232;9.222;2022-07-29T00:23:51;23.60;64.00
20081;DHT22;10200;49.232;9.222;2022-07-29T00:26:17;23.50;64.10
20081;DHT22;10200;49.232;9.222;2022-07-29T00:28:42;23.50;64.30
20081;DHT22;10200;49.232;9.222;2022-07-29T00:31:08;23.40;64.50
20081;DHT22;10200;49.232;9.222;2022-07-29T00:33:34;23.30;64.80
20081;DHT22;10200;49.232;9.222;2022-07-29T00:35:59;23.30;65.10
20081;DHT22;10200;49.232;9.222;2022-07-29T00:38:25;23.20;65.70
20081;DHT22;10200;49.232;9.222;2022-07-29T00:40:51;23.20;65.80
20081;DHT22;10200;49.232;9.222;2022-07-29T00:43:17;23.20;66.20
20081;DHT22;10200;49.232;9.222;2022-07-29T00:45:43;23.20;66.80
20081;DHT22;10200;49.232;9.222;2022-07-29T00:48:09;23.10;66.40
20081;DHT22;10200;49.232;9.222;2022-07-29T00:50:35;23.00;66.80
20081;DHT22;10200;49.232;9.222;2022-07-29T00:53:02;22.90;67.10
20081;DHT22;10200;49.232;9.222;2022-07-29T00:55:28;22.80;67.40
20081;DHT22;10200;49.232;9.222;2022-07-29T00:57:55;22.70;67.90
20081;DHT22;10200;49.232;9.222;2022-07-29T01:00:24;22.60;68.00
20081;DHT22;10200;49.232;9.222;2022-07-29T01:02:50;22.60;67.90
20081;DHT22;10200;49.232;9.222;2022-07-29T01:05:18;22.60;67.70
20081;DHT22;10200;49.232;9.222;2022-07-29T01:07:46;22.60;67.90
20081;DHT22;10200;49.232;9.222;2022-07-29T01:10:13;22.60;67.70
20081;DHT22;10200;49.232;9.222;2022-07-29T01:12:40;22.50;67.70
20081;DHT22;10200;49.232;9.222;2022-07-29T01:15:08;22.50;68.00
20081;DHT22;10200;49.232;9.222;2022-07-29T01:18:31;22.50;67.60
20081;DHT22;10200;49.232;9.222;2022-07-29T01:26:33;22.50;67.50
20081;DHT22;10200;49.232;9.222;2022-07-29T01:29:06;22.40;67.40
20081;DHT22;10200;49.232;9.222;2022-07-29T01:31:42;22.40;67.40
20081;DHT22;10200;49.232;9.222;2022-07-29T01:34:21;22.30;67.40
20081;DHT22;10200;49.232;9.222;2022-07-29T01:36:55;22.30;67.20
20081;DHT22;10200;49.232;9.222;2022-07-29T01:39:42;22.30;67.40
20081;DHT22;10200;49.232;9.222;2022-07-29T01:42:15;22.20;67.50
20081;DHT22;10200;49.232;9.222;2022-07-29T01:44:55;22.20;67.70
20081;DHT22;10200;49.232;9.222;2022-07-29T01:47:26;22.30;68.40
20081;DHT22;10200;49.232;9.222;2022-07-29T01:49:56;22.20;68.70
20081;DHT22;10200;49.232;9.222;2022-07-29T01:52:31;22.20;69.10
20081;DHT22;10200;49.232;9.222;2022-07-29T01:55:01;22.20;69.30
20081;DHT22;10200;49.232;9.222;2022-07-29T01:57:29;22.10;69.20
20081;DHT22;10200;49.232;9.222;2022-07-29T01:59:57;22.10;69.60
20081;DHT22;10200;49.232;9.222;2022-07-29T02:02:24;22.00;69.60
20081;DHT22;10200;49.232;9.222;2022-07-29T02:04:52;21.90;69.30
20081;DHT22;10200;49.232;9.222;2022-07-29T02:07:21;21.90;69.70
20081;DHT22;10200;49.232;9.222;2022-07-29T02:09:49;21.90;69.80
20081;DHT22;10200;49.232;9.222;2022-07-29T02:12:17;21.90;69.80
20081;DHT22;10200;49.232;9.222;2022-07-29T02:14:52;21.80;69.50
20081;DHT22;10200;49.232;9.222;2022-07-29T02:17:23;21.70;69.70
20081;DHT22;10200;49.232;9.222;2022-07-29T02:19:52;21.70;70.00
20081;DHT22;10200;49.232;9.222;2022-07-29T02:22:19;21.60;69.20
20081;DHT22;10200;49.232;9.222;2022-07-29T02:24:47;21.60;69.50
20081;DHT22;10200;49.232;9.222;2022-07-29T02:27:14;21.50;69.90
20081;DHT22;10200;49.232;9.222;2022-07-29T02:29:40;21.50;70.80
20081;DHT22;10200;49.232;9.222;2022-07-29T02:32:07;21.50;71.10
20081;DHT22;10200;49.232;9.222;2022-07-29T02:34:35;21.50;71.40
20081;DHT22;10200;49.232;9.222;2022-07-29T02:37:03;21.50;71.80
20081;DHT22;10200;49.232;9.222;2022-07-29T02:39:29;21.50;71.90
20081;DHT22;10200;49.232;9.222;2022-07-29T02:41:59;21.50;71.90
20081;DHT22;10200;49.232;9.222;2022-07-29T02:44:27;21.50;71.80
20081;DHT22;10200;49.232;9.222;2022-07-29T02:52:43;21.30;71.80
20081;DHT22;10200;49.232;9.222;2022-07-29T02:58:02;21.20;73.30
20081;DHT22;10200;49.232;9.222;2022-07-29T03:00:31;21.20;73.80
20081;DHT22;10200;49.232;9.222;2022-07-29T03:03:00;21.20;74.40
20081;DHT22;10200;49.232;9.222;2022-07-29T03:05:27;21.20;74.80
20081;DHT22;10200;49.232;9.222;2022-07-29T03:07:56;21.10;75.20
20081;DHT22;10200;49.232;9.222;2022-07-29T03:10:24;21.10;75.60
20081;DHT22;10200;49.232;9.222;2022-07-29T03:12:51;21.10;76.20
20081;DHT22;10200;49.232;9.222;2022-07-29T03:15:17;21.10;76.40
20081;DHT22;10200;49.232;9.222;2022-07-29T03:17:43;21.10;76.70
20081;DHT22;10200;49.232;9.222;2022-07-29T03:20:10;21.00;78.00
20081;DHT22;10200;49.232;9.222;2022-07-29T03:22:41;20.90;77.30
20081;DHT22;10200;49.232;9.222;2022-07-29T03:25:14;20.90;77.60
20081;DHT22;10200;49.232;9.222;2022-07-29T03:27:40;20.90;77.70
20081;DHT22;10200;49.232;9.222;2022-07-29T03:30:07;20.90;78.00
20081;DHT22;10200;49.232;9.222;2022-07-29T03:32:33;20.90;78.10
20081;DHT22;10200;49.232;9.222;2022-07-29T03:34:59;20.90;78.10
20081;DHT22;10200;49.232;9.222;2022-07-29T03:37:25;20.80;77.80
20081;DHT22;10200;49.232;9.222;2022-07-29T03:39:52;20.80;78.10
20081;DHT22;10200;49.232;9.222;2022-07-29T03:42:21;20.80;77.90
20081;DHT22;10200;49.232;9.222;2022-07-29T03:44:49;20.80;77.80
20081;DHT22;10200;49.232;9.222;2022-07-29T03:47:17;20.70;77.20
20081;DHT22;10200;49.232;9.222;2022-07-29T03:49:48;20.70;76.70
20081;DHT22;10200;49.232;9.222;2022-07-29T03:52:16;20.70;76.40
20081;DHT22;10200;49.232;9.222;2022-07-29T03:54:41;20.60;76.00
20081;DHT22;10200;49.232;9.222;2022-07-29T03:57:07;20.60;75.50
20081;DHT22;10200;49.232;9.222;2022-07-29T03:59:36;20.60;75.00
20081;DHT22;10200;49.232;9.222;2022-07-29T04:02:04;20.60;75.40
20081;DHT22;10200;49.232;9.222;2022-07-29T04:04:33;20.60;75.20
20081;DHT22;10200;49.232;9.222;2022-07-29T04:07:00;20.50;75.00
20081;DHT22;10200;49.232;9.222;2022-07-29T04:09:26;20.50;75.00
20081;DHT22;10200;49.232;9.222;2022-07-29T04:11:51;20.50;74.70
20081;DHT22;10200;49.232;9.222;2022-07-29T04:14:18;20.50;75.00
20081;DHT22;10200;49.232;9.222;2022-07-29T04:16:43;20.40;75.50
20081;DHT22;10200;49.232;9.222;2022-07-29T04:19:09;20.40;76.40
20081;DHT22;10200;49.232;9.222;2022-07-29T04:21:41;20.40;75.80
20081;DHT22;10200;49.232;9.222;2022-07-29T04:24:07;20.40;76.30
20081;DHT22;10200;49.232;9.222;2022-07-29T04:26:34;20.40;76.40
20081;DHT22;10200;49.232;9.222;2022-07-29T04:29:00;20.40;76.20
20081;DHT22;10200;49.232;9.222;2022-07-29T04:31:25;20.40;76.40
20081;DHT22;10200;49.232;9.222;2022-07-29T04:33:51;20.40;76.80
20081;DHT22;10200;49.232;9.222;2022-07-29T04:36:17;20.40;76.60
20081;DHT22;10200;49.232;9.222;2022-07-29T04:38:43;20.40;77.50
20081;DHT22;10200;49.232;9.222;2022-07-29T04:41:08;20.40;76.30
20081;DHT22;10200;49.232;9.222;2022-07-29T04:43:34;20.40;76.20
20081;DHT22;10200;49.232;9.222;2022-07-29T04:46:01;20.50;75.80
20081;DHT22;10200;49.232;9.222;2022-07-29T04:48:27;20.50;75.10
20081;DHT22;10200;49.232;9.222;2022-07-29T04:50:52;20.60;75.10
20081;DHT22;10200;49.232;9.222;2022-07-29T04:53:18;20.60;74.50
20081;DHT22;10200;49.232;9.222;2022-07-29T04:55:44;20.60;74.40
20081;DHT22;10200;49.232;9.222;2022-07-29T04:58:10;20.70;74.40
20081;DHT22;10200;49.232;9.222;2022-07-29T05:00:36;20.90;74.60
20081;DHT22;10200;49.232;9.222;2022-07-29T05:03:03;21.50;74.70
20081;DHT22;10200;49.232;9.222;2022-07-29T05:05:28;22.50;72.40
20081;DHT22;10200;49.232;9.222;2022-07-29T05:07:54;23.70;68.90
20081;DHT22;10200;49.232;9.222;2022-07-29T05:10:20;24.90;63.40
20081;DHT22;10200;49.232;9.222;2022-07-29T05:12:46;25.80;59.50
20081;DHT22;10200;49.232;9.222;2022-07-29T05:15:12;26.50;57.40
20081;DHT22;10200;49.232;9.222;2022-07-29T05:17:38;27.00;54.80
20081;DHT22;10200;49.232;9.222;2022-07-29T05:20:04;27.30;53.90
20081;DHT22;10200;49.232;9.222;2022-07-29T05:22:30;27.30;52.60
20081;DHT22;10200;49.232;9.222;2022-07-29T05:24:55;27.30;52.10
20081;DHT22;10200;49.232;9.222;2022-07-29T05:27:21;26.60;51.00
20081;DHT22;10200;49.232;9.222;2022-07-29T05:29:47;25.70;52.40
20081;DHT22;10200;49.232;9.222;2022-07-29T05:32:13;25.40;54.40
20081;DHT22;10200;49.232;9.222;2022-07-29T05:34:39;25.10;55.40
20081;DHT22;10200;49.232;9.222;2022-07-29T05:37:04;24.80;55.80
20081;DHT22;10200;49.232;9.222;2022-07-29T05:39:30;24.20;57.00
20081;DHT22;10200;49.232;9.222;2022-07-29T05:41:56;24.10;59.00
20081;DHT22;10200;49.232;9.222;2022-07-29T05:44:21;23.90;59.00
20081;DHT22;10200;49.232;9.222;2022-07-29T05:46:47;23.60;60.00
20081;DHT22;10200;49.232;9.222;2022-07-29T05:49:13;23.50;60.70
20081;DHT22;10200;49.232;9.222;2022-07-29T05:51:38;23.40;62.00
20081;DHT22;10200;49.232;9.222;2022-07-29T05:54:04;23.70;63.00
20081;DHT22;10200;49.232;9.222;2022-07-29T05:56:30;23.90;61.80
20081;DHT22;10200;49.232;9.222;2022-07-29T05:58:55;23.90;61.40
20081;DHT22;10200;49.232;9.222;2022-07-29T06:01:21;23.80;61.10
20081;DHT22;10200;49.232;9.222;2022-07-29T06:03:46;23.60;61.80
20081;DHT22;10200;49.232;9.222;2022-07-29T06:06:12;23.50;63.10
20081;DHT22;10200;49.232;9.222;2022-07-29T06:08:38;23.40;62.70
20081;DHT22;10200;49.232;9.222;2022-07-29T06:11:04;23.20;63.10
20081;DHT22;10200;49.232;9.222;2022-07-29T06:13:31;23.20;64.30
20081;DHT22;10200;49.232;9.222;2022-07-29T06:15:57;23.10;64.40
20081;DHT22;10200;49.232;9.222;2022-07-29T06:18:23;23.00;64.70
20081;DHT22;10200;49.232;9.222;2022-07-29T06:20:52;23.00;65.50
20081;DHT22;10200;49.232;9.222;2022-07-29T06:23:19;23.00;65.60
20081;DHT22;10200;49.232;9.222;2022-07-29T06:25:44;23.10;65.70
20081;DHT22;10200;49.232;9.222;2022-07-29T06:28:10;23.10;65.60
20081;DHT22;10200;49.232;9.222;2022-07-29T06:30:36;23.30;66.10
20081;DHT22;10200;49.232;9.222;2022-07-29T06:33:02;23.50;65.70
20081;DHT22;10200;49.232;9.222;2022-07-29T06:35:28;23.60;64.80
20081;DHT22;10200;49.232;9.222;2022-07-29T06:37:54;23.70;64.60
20081;DHT22;10200;49.232;9.222;2022-07-29T06:40:20;23.90;64.10
20081;DHT22;10200;49.232;9.222;2022-07-29T06:43:04;24.60;66.10
20081;DHT22;10200;49.232;9.222;2022-07-29T06:45:33;25.30;62.30
20081;DHT22;10200;49.232;9.222;2022-07-29T06:47:59;26.00;61.60
20081;DHT22;10200;49.232;9.222;2022-07-29T06:50:25;26.40;58.80
20081;DHT22;10200;49.232;9.222;2022-07-29T06:52:50;27.00;58.70
20081;DHT22;10200;49.232;9.222;2022-07-29T06:55:16;27.70;57.20
20081;DHT22;10200;49.232;9.222;2022-07-29T06:57:41;28.30;55.90
20081;DHT22;10200;49.232;9.222;2022-07-29T07:00:08;28.70;54.00
20081;DHT22;10200;49.232;9.222;2022-07-29T07:02:33;28.70;51.90
20081;DHT22;10200;49.232;9.222;2022-07-29T07:04:59;28.30;53.20
20081;DHT22;10200;49.232;9.222;2022-07-29T07:07:25;28.20;53.60
20081;DHT22;10200;49.232;9.222;2022-07-29T07:09:50;28.00;53.70
20081;DHT22;10200;49.232;9.222;2022-07-29T07:12:16;28.00;54.00
20081;DHT22;10200;49.232;9.222;2022-07-29T07:14:41;28.10;55.10
20081;DHT22;10200;49.232;9.222;2022-07-29T07:17:07;28.00;54.60
20081;DHT22;10200;49.232;9.222;2022-07-29T07:19:33;28.40;55.90
20081;DHT22;10200;49.232;9.222;2022-07-29T07:21:59;28.60;54.50
20081;DHT22;10200;49.232;9.222;2022-07-29T07:24:24;28.70;68.30
20081;DHT22;10200;49.232;9.222;2022-07-29T07:26:50;28.70;55.20
20081;DHT22;10200;49.232;9.222;2022-07-29T07:29:16;29.00;56.00
20081;DHT22;10200;49.232;9.222;2022-07-29T07:31:42;29.20;54.70
20081;DHT22;10200;49.232;9.222;2022-07-29T07:34:08;29.60;54.40
20081;DHT22;10200;49.232;9.222;2022-07-29T07:36:33;29.80;53.60
20081;DHT22;10200;49.232;9.222;2022-07-29T07:38:59;30.00;53.50
20081;DHT22;10200;49.232;9.222;2022-07-29T07:41:24;30.40;52.80
20081;DHT22;10200;49.232;9.222;2022-07-29T07:43:50;30.50;52.70
20081;DHT22;10200;49.232;9.222;2022-07-29T07:46:16;31.00;52.50
20081;DHT22;10200;49.232;9.222;2022-07-29T07:48:41;31.20;52.30
20081;DHT22;10200;49.232;9.222;2022-07-29T07:51:07;31.70;51.50
20081;DHT22;10200;49.232;9.222;2022-07-29T07:53:33;31.80;49.60
20081;DHT22;10200;49.232;9.222;2022-07-29T07:55:59;31.70;49.40
20081;DHT22;10200;49.232;9.222;2022-07-29T07:58:25;31.70;50.60
20081;DHT22;10200;49.232;9.222;2022-07-29T08:00:51;31.70;49.50
20081;DHT22;10200;49.232;9.222;2022-07-29T08:03:16;31.80;49.40
20081;DHT22;10200;49.232;9.222;2022-07-29T08:05:42;32.00;49.20
20081;DHT22;10200;49.232;9.222;2022-07-29T08:08:07;32.20;49.40
20081;DHT22;10200;49.232;9.222;2022-07-29T08:10:33;32.50;48.30
20081;DHT22;10200;49.232;9.222;2022-07-29T08:13:18;32.50;47.60
20081;DHT22;10200;49.232;9.222;2022-07-29T08:15:44;32.70;46.80
20081;DHT22;10200;49.232;9.222;2022-07-29T08:18:13;32.50;47.50
20081;DHT22;10200;49.232;9.222;2022-07-29T08:20:39;32.80;47.90
20081;DHT22;10200;49.232;9.222;2022-07-29T08:23:07;33.10;47.10
20081;DHT22;10200;49.232;9.222;2022-07-29T08:25:36;33.10;46.10
20081;DHT22;10200;49.232;9.222;2022-07-29T08:28:04;33.10;46.50
20081;DHT22;10200;49.232;9.222;2022-07-29T08:30:29;33.10;46.50
20081;DHT22;10200;49.232;9.222;2022-07-29T08:32:55;32.90;46.40
20081;DHT22;10200;49.232;9.222;2022-07-29T08:35:21;32.80;46.70
20081;DHT22;10200;49.232;9.222;2022-07-29T08:37:47;32.90;46.70
20081;DHT22;10200;49.232;9.222;2022-07-29T08:40:13;32.90;46.60
20081;DHT22;10200;49.232;9.222;2022-07-29T08:42:39;32.70;45.20
20081;DHT22;10200;49.232;9.222;2022-07-29T08:45:05;32.70;46.50
20081;DHT22;10200;49.232;9.222;2022-07-29T08:47:33;32.90;46.60
20081;DHT22;10200;49.232;9.222;2022-07-29T08:49:58;33.30;46.50
20081;DHT22;10200;49.232;9.222;2022-07-29T08:54:53;33.50;44.80
20081;DHT22;10200;49.232;9.222;2022-07-29T08:57:20;33.80;45.10
20081;DHT22;10200;49.232;9.222;2022-07-29T08:59:47;34.00;44.50
20081;DHT22;10200;49.232;9.222;2022-07-29T09:02:22;34.00;44.90
20081;DHT22;10200;49.232;9.222;2022-07-29T09:04:48;34.00;43.80
20081;DHT22;10200;49.232;9.222;2022-07-29T09:07:16;33.90;45.00
20081;DHT22;10200;49.232;9.222;2022-07-29T09:09:42;34.20;44.10
20081;DHT22;10200;49.232;9.222;2022-07-29T09:12:09;33.90;44.50
20081;DHT22;10200;49.232;9.222;2022-07-29T09:14:37;33.90;44.50
20081;DHT22;10200;49.232;9.222;2022-07-29T09:17:03;33.70;45.00
20081;DHT22;10200;49.232;9.222;2022-07-29T09:19:38;33.80;45.10
20081;DHT22;10200;49.232;9.222;2022-07-29T09:22:05;34.20;44.50
20081;DHT22;10200;49.232;9.222;2022-07-29T09:24:45;34.30;44.40
20081;DHT22;10200;49.232;9.222;2022-07-29T09:27:22;34.60;43.50
20081;DHT22;10200;49.232;9.222;2022-07-29T09:32:26;35.00;43.20
20081;DHT22;10200;49.232;9.222;2022-07-29T09:35:15;35.10;42.20
20081;DHT22;10200;49.232;9.222;2022-07-29T09:37:42;35.00;43.10
20081;DHT22;10200;49.232;9.222;2022-07-29T09:40:15;35.10;42.60
20081;DHT22;10200;49.232;9.222;2022-07-29T09:42:42;35.00;42.50
20081;DHT22;10200;49.232;9.222;2022-07-29T09:45:08;34.90;42.60
20081;DHT22;10200;49.232;9.222;2022-07-29T09:47:43;34.90;42.60
20081;DHT22;10200;49.232;9.222;2022-07-29T09:50:10;35.00;43.20
20081;DHT22;10200;49.232;9.222;2022-07-29T09:52:45;34.90;41.10
20081;DHT22;10200;49.232;9.222;2022-07-29T09:55:12;35.00;41.10
20081;DHT22;10200;49.232;9.222;2022-07-29T09:57:37;34.50;42.00
20081;DHT22;10200;49.232;9.222;2022-07-29T10:02:43;34.00;42.20
20081;DHT22;10200;49.232;9.222;2022-07-29T10:10:10;33.90;43.00
20081;DHT22;10200;49.232;9.222;2022-07-29T10:12:48;34.00;41.50
20081;DHT22;10200;49.232;9.222;2022-07-29T10:15:15;34.00;41.40
20081;DHT22;10200;49.232;9.222;2022-07-29T10:17:41;34.20;41.20
20081;DHT22;10200;49.232;9.222;2022-07-29T10:20:08;34.20;39.90
20081;DHT22;10200;49.232;9.222;2022-07-29T10:22:34;34.10;40.70
20081;DHT22;10200;49.232;9.222;2022-07-29T10:24:59;34.20;40.50
20081;DHT22;10200;49.232;9.222;2022-07-29T10:27:25;34.40;40.80
20081;DHT22;10200;49.232;9.222;2022-07-29T10:29:51;34.40;40.40
20081;DHT22;10200;49.232;9.222;2022-07-29T10:37:53;34.40;40.90
20081;DHT22;10200;49.232;9.222;2022-07-29T10:40:18;34.50;40.40
20081;DHT22;10200;49.232;9.222;2022-07-29T10:43:29;34.20;40.80
20081;DHT22;10200;49.232;9.222;2022-07-29T10:45:59;34.20;40.50
20081;DHT22;10200;49.232;9.222;2022-07-29T10:48:26;34.20;41.00
20081;DHT22;10200;49.232;9.222;2022-07-29T10:53:25;34.20;41.20
20081;DHT22;10200;49.232;9.222;2022-07-29T10:59:23;34.00;41.40
20081;DHT22;10200;49.232;9.222;2022-07-29T11:01:51;34.00;42.50
20081;DHT22;10200;49.232;9.222;2022-07-29T11:07:11;34.00;42.70
20081;DHT22;10200;49.232;9.222;2022-07-29T11:09:38;34.20;42.40
20081;DHT22;10200;49.232;9.222;2022-07-29T11:12:49;34.40;41.90
20081;DHT22;10200;49.232;9.222;2022-07-29T11:14:58;34.50;41.50
20081;DHT22;10200;49.232;9.222;2022-07-29T11:17:25;34.50;41.30
20081;DHT22;10200;49.232;9.222;2022-07-29T11:22:56;34.30;40.50
20081;DHT22;10200;49.232;9.222;2022-07-29T11:25:23;34.30;41.40
20081;DHT22;10200;49.232;9.222;2022-07-29T11:27:49;34.40;41.10
20081;DHT22;10200;49.232;9.222;2022-07-29T11:30:16;34.30;41.90
20081;DHT22;10200;49.232;9.222;2022-07-29T11:32:44;34.10;41.30
20081;DHT22;10200;49.232;9.222;2022-07-29T11:35:16;33.80;42.70
20081;DHT22;10200;49.232;9.222;2022-07-29T11:37:43;33.80;43.60
20081;DHT22;10200;49.232;9.222;2022-07-29T11:40:11;34.00;43.80
20081;DHT22;10200;49.232;9.222;2022-07-29T11:42:39;34.20;43.10
20081;DHT22;10200;49.232;9.222;2022-07-29T11:47:46;34.60;42.30
20081;DHT22;10200;49.232;9.222;2022-07-29T11:50:15;34.60;41.80
20081;DHT22;10200;49.232;9.222;2022-07-29T11:52:43;34.40;42.10
20081;DHT22;10200;49.232;9.222;2022-07-29T11:55:16;34.40;42.50
20081;DHT22;10200;49.232;9.222;2022-07-29T11:57:58;34.40;42.00
20081;DHT22;10200;49.232;9.222;2022-07-29T12:00:35;34.40;42.40
20081;DHT22;10200;49.232;9.222;2022-07-29T12:03:05;34.60;42.40
20081;DHT22;10200;49.232;9.222;2022-07-29T12:05:49;34.70;41.70
20081;DHT22;10200;49.232;9.222;2022-07-29T12:10:45;34.70;41.60
20081;DHT22;10200;49.232;9.222;2022-07-29T12:13:13;34.70;40.90
20081;DHT22;10200;49.232;9.222;2022-07-29T12:15:39;34.60;40.60
20081;DHT22;10200;49.232;9.222;2022-07-29T12:18:17;34.40;40.80
20081;DHT22;10200;49.232;9.222;2022-07-29T12:20:43;34.50;41.60
20081;DHT22;10200;49.232;9.222;2022-07-29T12:23:10;34.50;41.00
20081;DHT22;10200;49.232;9.222;2022-07-29T12:25:40;34.50;42.00
20081;DHT22;10200;49.232;9.222;2022-07-29T12:28:08;34.50;42.00
20081;DHT22;10200;49.232;9.222;2022-07-29T12:31:01;34.50;41.30
20081;DHT22;10200;49.232;9.222;2022-07-29T12:33:28;34.50;41.90
20081;DHT22;10200;49.232;9.222;2022-07-29T12:35:58;34.70;41.70
20081;DHT22;10200;49.232;9.222;2022-07-29T12:38:25;34.70;41.10
20081;DHT22;10200;49.232;9.222;2022-07-29T12:40:52;34.80;40.80
20081;DHT22;10200;49.232;9.222;2022-07-29T12:43:20;34.90;39.90
20081;DHT22;10200;49.232;9.222;2022-07-29T12:45:48;34.70;40.40
20081;DHT22;10200;49.232;9.222;2022-07-29T12:48:15;34.50;39.20
20081;DHT22;10200;49.232;9.222;2022-07-29T12:50:58;34.40;40.10
20081;DHT22;10200;49.232;9.222;2022-07-29T12:53:25;34.20;39.20
20081;DHT22;10200;49.232;9.222;2022-07-29T12:55:52;33.90;39.40
20081;DHT22;10200;49.232;9.222;2022-07-29T13:01:10;33.60;39.80
20081;DHT22;10200;49.232;9.222;2022-07-29T13:14:03;33.20;40.40
20081;DHT22;10200;49.232;9.222;2022-07-29T13:16:29;33.20;40.90
20081;DHT22;10200;49.232;9.222;2022-07-29T13:19:12;33.10;40.90
20081;DHT22;10200;49.232;9.222;2022-07-29T13:21:39;33.20;40.60
20081;DHT22;10200;49.232;9.222;2022-07-29T13:24:06;33.20;40.60
20081;DHT22;10200;49.232;9.222;2022-07-29T13:26:31;33.10;40.40
20081;DHT22;10200;49.232;9.222;2022-07-29T13:28:57;33.20;40.50
20081;DHT22;10200;49.232;9.222;2022-07-29T13:31:23;32.90;39.80
20081;DHT22;10200;49.232;9.222;2022-07-29T13:33:49;32.70;40.50
20081;DHT22;10200;49.232;9.222;2022-07-29T13:36:14;32.70;41.40
20081;DHT22;10200;49.232;9.222;2022-07-29T13:38:40;32.70;41.40
20081;DHT22;10200;49.232;9.222;2022-07-29T13:41:06;32.70;41.60
20081;DHT22;10200;49.232;9.222;2022-07-29T13:43:31;32.60;41.30
20081;DHT22;10200;49.232;9.222;2022-07-29T13:45:57;32.60;41.40
20081;DHT22;10200;49.232;9.222;2022-07-29T13:48:22;32.70;41.00
20081;DHT22;10200;49.232;9.222;2022-07-29T13:50:48;32.70;40.40
20081;DHT22;10200;49.232;9.222;2022-07-29T13:53:14;32.60;40.00
20081;DHT22;10200;49.232;9.222;2022-07-29T13:55:40;32.60;39.80
20081;DHT22;10200;49.232;9.222;2022-07-29T13:58:05;32.60;40.40
20081;DHT22;10200;49.232;9.222;2022-07-29T14:00:31;32.50;40.60
20081;DHT22;10200;49.232;9.222;2022-07-29T14:02:56;32.50;40.40
20081;DHT22;10200;49.232;9.222;2022-07-29T14:05:22;32.50;40.50
20081;DHT22;10200;49.232;9.222;2022-07-29T14:07:48;32.40;41.10
20081;DHT22;10200;49.232;9.222;2022-07-29T14:10:19;32.40;41.00
20081;DHT22;10200;49.232;9.222;2022-07-29T14:12:45;32.50;41.20
20081;DHT22;10200;49.232;9.222;2022-07-29T14:15:10;32.50;40.90
20081;DHT22;10200;49.232;9.222;2022-07-29T14:17:36;32.50;40.80
20081;DHT22;10200;49.232;9.222;2022-07-29T14:20:02;32.40;40.70
20081;DHT22;10200;49.232;9.222;2022-07-29T14:22:28;32.40;40.40
20081;DHT22;10200;49.232;9.222;2022-07-29T14:24:54;32.40;40.60
20081;DHT22;10200;49.232;9.222;2022-07-29T14:27:20;32.30;40.30
20081;DHT22;10200;49.232;9.222;2022-07-29T14:29:45;32.10;40.80
20081;DHT22;10200;49.232;9.222;2022-07-29T14:32:11;32.10;40.90
20081;DHT22;10200;49.232;9.222;2022-07-29T14:34:37;32.10;41.50
20081;DHT22;10200;49.232;9.222;2022-07-29T14:37:03;32.10;41.40
20081;DHT22;10200;49.232;9.222;2022-07-29T14:39:31;32.10;40.70
20081;DHT22;10200;49.232;9.222;2022-07-29T14:41:56;32.00;41.50
20081;DHT22;10200;49.232;9.222;2022-07-29T14:44:22;32.00;41.20
20081;DHT22;10200;49.232;9.222;2022-07-29T14:46:49;32.00;41.20
20081;DHT22;10200;49.232;9.222;2022-07-29T14:49:14;32.00;41.10
20081;DHT22;10200;49.232;9.222;2022-07-29T14:51:40;31.90;40.80
20081;DHT22;10200;49.232;9.222;2022-07-29T14:54:06;31.80;41.10
20081;DHT22;10200;49.232;9.222;2022-07-29T14:56:32;31.60;41.10
20081;DHT22;10200;49.232;9.222;2022-07-29T14:58:58;31.60;41.50
20081;DHT22;10200;49.232;9.222;2022-07-29T15:01:24;31.70;41.50
20081;DHT22;10200;49.232;9.222;2022-07-29T15:03:50;31.70;41.50
20081;DHT22;10200;49.232;9.222;2022-07-29T15:06:16;31.80;41.50
20081;DHT22;10200;49.232;9.222;2022-07-29T15:08:41;31.80;40.80
20081;DHT22;10200;49.232;9.222;2022-07-29T15:11:07;31.80;40.90
20081;DHT22;10200;49.232;9.222;2022-07-29T15:13:33;31.80;41.10
20081;DHT22;10200;49.232;9.222;2022-07-29T15:15:59;31.90;41.20
20081;DHT22;10200;49.232;9.222;2022-07-29T15:18:24;31.80;40.70
20081;DHT22;10200;49.232;9.222;2022-07-29T15:20:50;31.70;40.90
20081;DHT22;10200;49.232;9.222;2022-07-29T15:23:16;31.60;40.70
20081;DHT22;10200;49.232;9.222;2022-07-29T15:25:41;31.60;39.70
20081;DHT22;10200;49.232;9.222;2022-07-29T15:28:07;31.50;39.80
20081;DHT22;10200;49.232;9.222;2022-07-29T15:30:34;31.50;40.10
20081;DHT22;10200;49.232;9.222;2022-07-29T15:33:02;31.50;39.90
20081;DHT22;10200;49.232;9.222;2022-07-29T15:35:28;31.50;39.90
20081;DHT22;10200;49.232;9.222;2022-07-29T15:37:54;31.30;39.80
20081;DHT22;10200;49.232;9.222;2022-07-29T15:40:20;31.30;40.50
20081;DHT22;10200;49.232;9.222;2022-07-29T15:42:45;31.30;40.30
20081;DHT22;10200;49.232;9.222;2022-07-29T15:45:11;31.30;40.40
20081;DHT22;10200;49.232;9.222;2022-07-29T15:47:37;31.20;40.80
20081;DHT22;10200;49.232;9.222;2022-07-29T15:50:02;31.20;40.60
20081;DHT22;10200;49.232;9.222;2022-07-29T15:52:28;31.20;41.00
20081;DHT22;10200;49.232;9.222;2022-07-29T15:54:55;31.20;41.00
20081;DHT22;10200;49.232;9.222;2022-07-29T15:57:21;31.10;41.10
20081;DHT22;10200;49.232;9.222;2022-07-29T15:59:47;31.00;41.10
20081;DHT22;10200;49.232;9.222;2022-07-29T16:02:12;31.00;41.50
20081;DHT22;10200;49.232;9.222;2022-07-29T16:04:38;31.00;41.50
20081;DHT22;10200;49.232;9.222;2022-07-29T16:07:04;30.90;41.10
20081;DHT22;10200;49.232;9.222;2022-07-29T16:09:29;30.70;40.80
20081;DHT22;10200;49.232;9.222;2022-07-29T16:11:55;30.70;41.30
20081;DHT22;10200;49.232;9.222;2022-07-29T16:14:21;30.60;41.00
20081;DHT22;10200;49.232;9.222;2022-07-29T16:16:47;30.40;40.50
20081;DHT22;10200;49.232;9.222;2022-07-29T16:19:15;30.30;40.60
20081;DHT22;10200;49.232;9.222;2022-07-29T16:21:41;30.20;41.00
20081;DHT22;10200;49.232;9.222;2022-07-29T16:24:06;30.30;40.80
20081;DHT22;10200;49.232;9.222;2022-07-29T16:26:33;30.30;40.50
20081;DHT22;10200;49.232;9.222;2022-07-29T16:28:59;30.40;40.50
20081;DHT22;10200;49.232;9.222;2022-07-29T16:31:25;30.50;40.30
20081;DHT22;10200;49.232;9.222;2022-07-29T16:33:52;30.50;40.50
20081;DHT22;10200;49.232;9.222;2022-07-29T16:36:17;30.60;39.90